sensor_id;sensor_type;location;lat;lon;timestamp;pressure;altitude;pressure_sealevel;temperature;humidity
9129;BME280;4599;50.906;6.786;2023-02-13T00:02:27;14121.09;;;-142.83;77.29
9129;BME280;4599;50.906;6.786;2023-02-13T00:06:30;14114.97;;;-142.83;77.02
9129;BME280;4599;50.906;6.786;2023-02-13T00:10:31;14100.66;;;-142.83;77.07
9129;BME280;4599;50.906;6.786;2023-02-13T00:14:34;14096.59;;;-142.83;77.16
9129;BME280;4599;50.906;6.786;2023-02-13T00:18:36;14088.41;;;-142.83;77.05
9129;BME280;4599;50.906;6.786;2023-02-13T00:22:40;14104.75;;;-142.83;77.20
9129;BME280;4599;50.906;6.786;2023-02-13T00:26:41;14094.53;;;-142.83;77.33
9129;BME280;4599;50.906;6.786;2023-02-13T00:30:43;14092.50;;;-142.83;77.12
9129;BME280;4599;50.906;6.786;2023-02-13T00:34:44;14117.03;;;-142.83;77.65
9129;BME280;4599;50.906;6.786;2023-02-13T00:38:47;14114.97;;;-142.83;77.31
9129;BME280;4599;50.906;6.786;2023-02-13T00:42:49;14114.97;;;-142.83;77.17
9129;BME280;4599;50.906;6.786;2023-02-13T00:46:50;14092.50;;;-142.83;77.56
9129;BME280;4599;50.906;6.786;2023-02-13T00:50:52;14080.22;;;-142.83;77.34
9129;BME280;4599;50.906;6.786;2023-02-13T00:54:55;14119.06;;;-142.83;77.37
9129;BME280;4599;50.906;6.786;2023-02-13T00:58:56;14112.94;;;-142.83;77.63
9129;BME280;4599;50.906;6.786;2023-02-13T01:02:58;14100.66;;;-142.83;77.76
9129;BME280;4599;50.906;6.786;2023-02-13T01:06:59;14076.16;;;-142.83;77.72
9129;BME280;4599;50.906;6.786;2023-02-13T01:11:02;14084.31;;;-142.83;78.06
9129;BME280;4599;50.906;6.786;2023-02-13T01:15:06;14065.94;;;-142.83;78.09
9129;BME280;4599;50.906;6.786;2023-02-13T01:19:07;14092.50;;;-142.83;77.65
9129;BME280;4599;50.906;6.786;2023-02-13T01:23:09;14098.63;;;-142.83;78.39
9129;BME280;4599;50.906;6.786;2023-02-13T01:27:12;14063.88;;;-142.83;77.93
9129;BME280;4599;50.906;6.786;2023-02-13T01:31:14;14076.16;;;-142.83;77.70
9129;BME280;4599;50.906;6.786;2023-02-13T01:35:16;14080.22;;;-142.83;77.56
9129;BME280;4599;50.906;6.786;2023-02-13T01:39:17;14088.41;;;-142.83;78.44
9129;BME280;4599;50.906;6.786;2023-02-13T01:43:20;14104.75;;;-142.83;78.24
9129;BME280;4599;50.906;6.786;2023-02-13T01:47:25;14084.31;;;-142.83;78.19
9129;BME280;4599;50.906;6.786;2023-02-13T01:51:30;14092.50;;;-142.83;78.04
9129;BME280;4599;50.906;6.786;2023-02-13T01:55:34;14080.22;;;-142.83;78.59
9129;BME280;4599;50.906;6.786;2023-02-13T01:59:43;14070.00;;;-142.83;78.13
9129;BME280;4599;50.906;6.786;2023-02-13T02:03:50;14104.75;;;-142.83;78.56
9129;BME280;4599;50.906;6.786;2023-02-13T02:07:53;14129.28;;;-142.83;78.15
9129;BME280;4599;50.906;6.786;2023-02-13T02:12:00;14092.50;;;-142.83;78.56
9129;BME280;4599;50.906;6.786;2023-02-13T02:16:05;14035.28;;;-142.83;79.10
9129;BME280;4599;50.906;6.786;2023-02-13T02:20:22;14102.72;;;-142.83;78.05
9129;BME280;4599;50.906;6.786;2023-02-13T02:29:22;14125.19;;;-142.83;78.72
9129;BME280;4599;50.906;6.786;2023-02-13T02:33:36;14053.66;;;-142.83;78.66
9129;BME280;4599;50.906;6.786;2023-02-13T02:37:52;13982.13;;;-142.83;78.24
9129;BME280;4599;50.906;6.786;2023-02-13T02:42:00;14100.66;;;-142.83;78.52
9129;BME280;4599;50.906;6.786;2023-02-13T02:46:11;14065.94;;;-142.83;78.64
9129;BME280;4599;50.906;6.786;2023-02-13T02:50:25;14117.03;;;-142.83;78.16
9129;BME280;4599;50.906;6.786;2023-02-13T02:54:35;14188.56;;;-142.83;78.57
9129;BME280;4599;50.906;6.786;2023-02-13T02:58:41;-13437.44;;;-142.83;78.27
9129;BME280;4599;50.906;6.786;2023-02-13T03:02:45;-13437.44;;;-142.83;78.45
9129;BME280;4599;50.906;6.786;2023-02-13T03:06:51;-13437.44;;;-142.83;78.52
9129;BME280;4599;50.906;6.786;2023-02-13T03:10:55;-13437.44;;;-142.83;78.60
9129;BME280;4599;50.906;6.786;2023-02-13T03:14:57;-13437.44;;;-142.83;78.72
9129;BME280;4599;50.906;6.786;2023-02-13T03:18:58;-13437.44;;;-142.83;78.99
9129;BME280;4599;50.906;6.786;2023-02-13T03:23:10;-13437.44;;;-142.83;78.39
9129;BME280;4599;50.906;6.786;2023-02-13T03:27:20;-13437.44;;;-142.83;78.84
9129;BME280;4599;50.906;6.786;2023-02-13T03:31:31;-13437.44;;;-142.83;78.99
9129;BME280;4599;50.906;6.786;2023-02-13T03:35:40;-13437.44;;;-142.83;78.39
9129;BME280;4599;50.906;6.786;2023-02-13T03:39:54;-13437.44;;;-142.83;78.69
9129;BME280;4599;50.906;6.786;2023-02-13T03:44:06;-13437.44;;;-142.83;79.10
9129;BME280;4599;50.906;6.786;2023-02-13T03:48:14;-13437.44;;;-142.83;79.47
9129;BME280;4599;50.906;6.786;2023-02-13T03:52:22;-13437.44;;;-142.83;79.76
9129;BME280;4599;50.906;6.786;2023-02-13T03:56:27;-13437.44;;;-142.83;79.91
9129;BME280;4599;50.906;6.786;2023-02-13T04:00:34;-13437.44;;;-142.83;79.39
9129;BME280;4599;50.906;6.786;2023-02-13T04:04:44;-13437.44;;;-142.83;79.69
9129;BME280;4599;50.906;6.786;2023-02-13T04:08:47;-13437.44;;;-142.83;80.15
9129;BME280;4599;50.906;6.786;2023-02-13T04:12:56;-13437.44;;;-142.83;80.09
9129;BME280;4599;50.906;6.786;2023-02-13T04:17:04;-13437.44;;;-142.83;80.56
9129;BME280;4599;50.906;6.786;2023-02-13T04:21:06;-13437.44;;;-142.83;79.62
9129;BME280;4599;50.906;6.786;2023-02-13T04:25:09;-13437.44;;;-142.83;80.34
9129;BME280;4599;50.906;6.786;2023-02-13T04:29:13;-13437.44;;;-142.83;80.97
9129;BME280;4599;50.906;6.786;2023-02-13T04:33:14;-13437.44;;;-142.83;80.55
9129;BME280;4599;50.906;6.786;2023-02-13T04:37:16;-13437.44;;;-142.83;81.02
9129;BME280;4599;50.906;6.786;2023-02-13T04:41:17;-13437.44;;;-142.83;80.95
9129;BME280;4599;50.906;6.786;2023-02-13T04:45:20;-13437.44;;;-142.83;81.14
9129;BME280;4599;50.906;6.786;2023-02-13T04:49:22;-13437.44;;;-142.83;80.91
9129;BME280;4599;50.906;6.786;2023-02-13T04:53:23;-13437.44;;;-142.83;81.23
9129;BME280;4599;50.906;6.786;2023-02-13T04:57:24;-13437.44;;;-142.83;81.37
9129;BME280;4599;50.906;6.786;2023-02-13T05:01:28;-13437.44;;;-142.83;81.90
9129;BME280;4599;50.906;6.786;2023-02-13T05:05:29;-13437.44;;;-142.83;82.14
9129;BME280;4599;50.906;6.786;2023-02-13T05:09:30;-13437.44;;;-142.83;81.47
9129;BME280;4599;50.906;6.786;2023-02-13T05:13:32;-13437.44;;;-142.83;82.12
9129;BME280;4599;50.906;6.786;2023-02-13T05:17:35;-13437.44;;;-142.83;81.47
9129;BME280;4599;50.906;6.786;2023-02-13T05:21:36;-13437.44;;;-142.83;81.68
9129;BME280;4599;50.906;6.786;2023-02-13T05:25:39;-13437.44;;;-142.83;81.71
9129;BME280;4599;50.906;6.786;2023-02-13T05:29:41;-13437.44;;;-142.83;82.17
9129;BME280;4599;50.906;6.786;2023-02-13T05:33:44;-13437.44;;;-142.83;81.68
9129;BME280;4599;50.906;6.786;2023-02-13T05:37:45;-13437.44;;;-142.83;81.91
9129;BME280;4599;50.906;6.786;2023-02-13T05:41:47;-13437.44;;;-142.83;82.16
9129;BME280;4599;50.906;6.786;2023-02-13T05:45:49;-13437.44;;;-142.83;81.21
9129;BME280;4599;50.906;6.786;2023-02-13T05:49:52;-13437.44;;;-142.83;81.68
9129;BME280;4599;50.906;6.786;2023-02-13T05:53:53;-13437.44;;;-142.83;81.68
9129;BME280;4599;50.906;6.786;2023-02-13T05:57:55;-13437.44;;;-142.83;81.69
9129;BME280;4599;50.906;6.786;2023-02-13T06:01:57;-13437.44;;;-142.83;82.08
9129;BME280;4599;50.906;6.786;2023-02-13T06:06:00;-13437.44;;;-142.83;81.99
9129;BME280;4599;50.906;6.786;2023-02-13T06:10:01;-13437.44;;;-142.83;81.97
9129;BME280;4599;50.906;6.786;2023-02-13T06:14:03;-13437.44;;;-142.83;81.72
9129;BME280;4599;50.906;6.786;2023-02-13T06:18:04;-13437.44;;;-142.83;81.93
9129;BME280;4599;50.906;6.786;2023-02-13T06:22:07;-13437.44;;;-142.83;81.60
9129;BME280;4599;50.906;6.786;2023-02-13T06:26:09;-13437.44;;;-142.83;82.31
9129;BME280;4599;50.906;6.786;2023-02-13T06:30:11;-13437.44;;;-142.83;82.10
9129;BME280;4599;50.906;6.786;2023-02-13T06:34:13;-13437.44;;;-142.83;82.48
9129;BME280;4599;50.906;6.786;2023-02-13T06:38:16;-13437.44;;;-142.83;82.64
9129;BME280;4599;50.906;6.786;2023-02-13T06:42:18;-13437.44;;;-142.83;82.96
9129;BME280;4599;50.906;6.786;2023-02-13T06:46:19;-13437.44;;;-142.83;82.13
9129;BME280;4599;50.906;6.786;2023-02-13T06:50:20;-13437.44;;;-142.83;82.56
9129;BME280;4599;50.906;6.786;2023-02-13T06:54:23;-13437.44;;;-142.83;82.73
9129;BME280;4599;50.906;6.786;2023-02-13T06:58:41;-13437.44;;;-142.83;83.13
9129;BME280;4599;50.906;6.786;2023-02-13T07:02:44;-13437.44;;;-142.83;82.70
9129;BME280;4599;50.906;6.786;2023-02-13T07:06:46;-13437.44;;;-142.83;82.91
9129;BME280;4599;50.906;6.786;2023-02-13T07:10:48;-13437.44;;;-142.83;82.59
9129;BME280;4599;50.906;6.786;2023-02-13T07:14:50;-13437.44;;;-142.83;82.66
9129;BME280;4599;50.906;6.786;2023-02-13T07:18:51;-13437.44;;;-142.83;82.69
9129;BME280;4599;50.906;6.786;2023-02-13T07:22:56;-13437.44;;;-142.83;82.79
9129;BME280;4599;50.906;6.786;2023-02-13T07:26:59;-13437.44;;;-142.83;82.12
9129;BME280;4599;50.906;6.786;2023-02-13T07:31:03;-13437.44;;;-142.83;82.30
9129;BME280;4599;50.906;6.786;2023-02-13T07:35:05;-13437.44;;;-142.83;82.08
9129;BME280;4599;50.906;6.786;2023-02-13T07:39:06;-13437.44;;;-142.83;82.59
9129;BME280;4599;50.906;6.786;2023-02-13T07:43:12;-13437.44;;;-142.83;82.16
9129;BME280;4599;50.906;6.786;2023-02-13T07:47:14;-13437.44;;;-142.83;82.02
9129;BME280;4599;50.906;6.786;2023-02-13T07:51:15;-13437.44;;;-142.83;81.42
9129;BME280;4599;50.906;6.786;2023-02-13T07:55:16;-13437.44;;;-142.83;81.86
9129;BME280;4599;50.906;6.786;2023-02-13T07:59:19;14100.66;;;-142.83;81.26
9129;BME280;4599;50.906;6.786;2023-02-13T08:03:21;14084.31;;;-142.83;80.93
9129;BME280;4599;50.906;6.786;2023-02-13T08:07:23;14039.34;;;-142.83;80.75
9129;BME280;4599;50.906;6.786;2023-02-13T08:11:27;14133.38;;;-142.83;80.42
9129;BME280;4599;50.906;6.786;2023-02-13T08:15:32;14110.88;;;-142.83;80.11
9129;BME280;4599;50.906;6.786;2023-02-13T08:19:34;14125.19;;;-142.83;80.15
9129;BME280;4599;50.906;6.786;2023-02-13T08:23:35;14086.38;;;-142.83;79.72
9129;BME280;4599;50.906;6.786;2023-02-13T08:27:37;14131.31;;;-142.83;78.93
9129;BME280;4599;50.906;6.786;2023-02-13T08:31:40;14129.28;;;-142.83;79.17
9129;BME280;4599;50.906;6.786;2023-02-13T08:35:41;14155.84;;;-142.83;78.58
9129;BME280;4599;50.906;6.786;2023-02-13T08:39:43;14141.53;;;-142.83;78.25
9129;BME280;4599;50.906;6.786;2023-02-13T08:43:47;14133.38;;;-142.83;77.85
9129;BME280;4599;50.906;6.786;2023-02-13T08:47:50;14119.06;;;-142.83;77.55
9129;BME280;4599;50.906;6.786;2023-02-13T08:51:51;14155.84;;;-142.83;77.01
9129;BME280;4599;50.906;6.786;2023-02-13T08:55:53;14161.97;;;-142.83;76.83
9129;BME280;4599;50.906;6.786;2023-02-13T08:59:55;14153.81;;;-142.83;76.44
9129;BME280;4599;50.906;6.786;2023-02-13T09:03:58;14139.50;;;-142.83;76.54
9129;BME280;4599;50.906;6.786;2023-02-13T09:08:00;14166.06;;;-142.83;76.48
9129;BME280;4599;50.906;6.786;2023-02-13T09:12:02;14168.13;;;-142.83;75.92
9129;BME280;4599;50.906;6.786;2023-02-13T09:16:05;14182.41;;;-142.83;74.93
9129;BME280;4599;50.906;6.786;2023-02-13T09:20:09;14157.91;;;-142.83;74.83
9129;BME280;4599;50.906;6.786;2023-02-13T09:24:11;14202.84;;;-142.83;74.90
9129;BME280;4599;50.906;6.786;2023-02-13T09:28:12;14219.22;;;-142.83;74.57
9129;BME280;4599;50.906;6.786;2023-02-13T09:32:14;14194.69;;;-142.83;74.00
9129;BME280;4599;50.906;6.786;2023-02-13T09:36:18;14186.50;;;-142.83;73.92
9129;BME280;4599;50.906;6.786;2023-02-13T09:40:25;14206.94;;;-142.83;74.62
9129;BME280;4599;50.906;6.786;2023-02-13T09:44:33;14217.16;;;-142.83;73.12
9129;BME280;4599;50.906;6.786;2023-02-13T09:48:38;14235.56;;;-142.83;72.78
9129;BME280;4599;50.906;6.786;2023-02-13T09:52:43;14198.78;;;-142.83;72.66
9129;BME280;4599;50.906;6.786;2023-02-13T09:56:51;14198.78;;;-142.83;72.44
9129;BME280;4599;50.906;6.786;2023-02-13T10:00:57;14249.88;;;-142.83;71.62
9129;BME280;4599;50.906;6.786;2023-02-13T10:05:08;14225.34;;;-142.83;71.38
9129;BME280;4599;50.906;6.786;2023-02-13T10:09:18;-13437.44;;;-142.83;71.37
9129;BME280;4599;50.906;6.786;2023-02-13T10:13:29;-13437.44;;;-142.83;70.99
9129;BME280;4599;50.906;6.786;2023-02-13T10:17:33;-13437.44;;;-142.83;70.42
9129;BME280;4599;50.906;6.786;2023-02-13T10:21:40;-13437.44;;;-142.83;70.02
9129;BME280;4599;50.906;6.786;2023-02-13T10:25:48;-13437.44;;;-142.83;70.17
9129;BME280;4599;50.906;6.786;2023-02-13T10:29:54;-13437.44;;;-142.83;69.02
9129;BME280;4599;50.906;6.786;2023-02-13T10:34:01;-13437.44;;;-142.83;68.17
9129;BME280;4599;50.906;6.786;2023-02-13T10:38:13;-13437.44;;;-142.83;66.53
9129;BME280;4599;50.906;6.786;2023-02-13T10:42:28;-13437.44;;;-142.83;63.47
9129;BME280;4599;50.906;6.786;2023-02-13T10:46:40;-13437.44;;;-142.83;61.49
9129;BME280;4599;50.906;6.786;2023-02-13T10:50:47;65880.28;;;-142.83;100.00
9129;BME280;4599;50.906;6.786;2023-02-13T10:55:04;65880.28;;;-142.83;100.00
9129;BME280;4599;50.906;6.786;2023-02-13T10:59:22;65880.28;;;-142.83;100.00
9129;BME280;4599;50.906;6.786;2023-02-13T11:03:28;65880.28;;;-142.83;100.00
9129;BME280;4599;50.906;6.786;2023-02-13T11:07:30;65880.28;;;-142.83;100.00
9129;BME280;4599;50.906;6.786;2023-02-13T11:11:33;65880.28;;;-142.83;100.00
9129;BME280;4599;50.906;6.786;2023-02-13T11:15:37;65880.28;;;-142.83;100.00
9129;BME280;4599;50.906;6.786;2023-02-13T11:19:48;65880.28;;;-142.83;100.00
9129;BME280;4599;50.906;6.786;2023-02-13T11:23:52;65880.28;;;-142.83;100.00
9129;BME280;4599;50.906;6.786;2023-02-13T11:28:07;-13437.44;;;-142.83;61.49
9129;BME280;4599;50.906;6.786;2023-02-13T11:32:20;-13437.44;;;-142.83;49.62
9129;BME280;4599;50.906;6.786;2023-02-13T11:36:25;-13437.44;;;-142.83;49.13
9129;BME280;4599;50.906;6.786;2023-02-13T11:40:30;-13437.44;;;-142.83;49.33
9129;BME280;4599;50.906;6.786;2023-02-13T11:44:32;-13437.44;;;-142.83;49.70
9129;BME280;4599;50.906;6.786;2023-02-13T11:48:35;-13437.44;;;-142.83;47.94
9129;BME280;4599;50.906;6.786;2023-02-13T11:52:36;-13437.44;;;-142.83;48.23
9129;BME280;4599;50.906;6.786;2023-02-13T11:56:47;-13437.44;;;-142.83;49.11
9129;BME280;4599;50.906;6.786;2023-02-13T12:01:23;-13437.44;;;-142.83;48.11
9129;BME280;4599;50.906;6.786;2023-02-13T12:05:28;-13437.44;;;-142.83;47.80
9129;BME280;4599;50.906;6.786;2023-02-13T12:09:30;-13437.44;;;-142.83;48.71
9129;BME280;4599;50.906;6.786;2023-02-13T12:13:35;-13437.44;;;-142.83;48.40
9129;BME280;4599;50.906;6.786;2023-02-13T12:17:38;-13437.44;;;-142.83;49.36
9129;BME280;4599;50.906;6.786;2023-02-13T12:21:57;-13437.44;;;-142.83;48.40
9129;BME280;4599;50.906;6.786;2023-02-13T12:26:12;-13437.44;;;-142.83;48.67
9129;BME280;4599;50.906;6.786;2023-02-13T12:39:25;-13437.44;;;-142.83;48.83
9129;BME280;4599;50.906;6.786;2023-02-13T12:43:48;-13437.44;;;-142.83;48.52
9129;BME280;4599;50.906;6.786;2023-02-13T12:48:04;-13437.44;;;-142.83;48.86
9129;BME280;4599;50.906;6.786;2023-02-13T12:52:25;-13437.44;;;-142.83;47.97
9129;BME280;4599;50.906;6.786;2023-02-13T12:56:40;-13437.44;;;-142.83;48.43
9129;BME280;4599;50.906;6.786;2023-02-13T13:00:52;-13437.44;;;-142.83;47.73
9129;BME280;4599;50.906;6.786;2023-02-13T13:05:05;-13437.44;;;-142.83;47.60
9129;BME280;4599;50.906;6.786;2023-02-13T13:09:22;-13437.44;;;-142.83;48.30
9129;BME280;4599;50.906;6.786;2023-02-13T13:13:37;-13437.44;;;-142.83;48.11
9129;BME280;4599;50.906;6.786;2023-02-13T13:18:01;-13437.44;;;-142.83;47.67
9129;BME280;4599;50.906;6.786;2023-02-13T13:22:09;-13437.44;;;-142.83;47.54
9129;BME280;4599;50.906;6.786;2023-02-13T13:26:19;-13437.44;;;-142.83;47.76
9129;BME280;4599;50.906;6.786;2023-02-13T13:30:27;-13437.44;;;-142.83;47.35
9129;BME280;4599;50.906;6.786;2023-02-13T13:34:30;-13437.44;;;-142.83;47.24
9129;BME280;4599;50.906;6.786;2023-02-13T13:38:45;-13437.44;;;-142.83;47.61
9129;BME280;4599;50.906;6.786;2023-02-13T13:42:51;-13437.44;;;-142.83;47.77
9129;BME280;4599;50.906;6.786;2023-02-13T13:46:59;-13437.44;;;-142.83;47.22
9129;BME280;4599;50.906;6.786;2023-02-13T13:51:06;-13437.44;;;-142.83;47.96
9129;BME280;4599;50.906;6.786;2023-02-13T14:00:18;-13437.44;;;-142.83;46.81
9129;BME280;4599;50.906;6.786;2023-02-13T14:04:38;-13437.44;;;-142.83;47.23
9129;BME280;4599;50.906;6.786;2023-02-13T14:08:56;-13437.44;;;-142.83;47.24
9129;BME280;4599;50.906;6.786;2023-02-13T14:12:59;-13437.44;;;-142.83;47.16
9129;BME280;4599;50.906;6.786;2023-02-13T14:17:01;-13437.44;;;-142.83;47.15
9129;BME280;4599;50.906;6.786;2023-02-13T14:21:05;-13437.44;;;-142.83;47.22
9129;BME280;4599;50.906;6.786;2023-02-13T14:25:20;-13437.44;;;-142.83;46.78
9129;BME280;4599;50.906;6.786;2023-02-13T14:29:31;-13437.44;;;-142.83;47.02
9129;BME280;4599;50.906;6.786;2023-02-13T14:33:33;-13437.44;;;-142.83;46.61
9129;BME280;4599;50.906;6.786;2023-02-13T14:37:37;-13437.44;;;-142.83;46.66
9129;BME280;4599;50.906;6.786;2023-02-13T14:41:58;-13437.44;;;-142.83;47.08
9129;BME280;4599;50.906;6.786;2023-02-13T14:46:08;-13437.44;;;-142.83;47.43
9129;BME280;4599;50.906;6.786;2023-02-13T14:50:15;-13437.44;;;-142.83;47.87
9129;BME280;4599;50.906;6.786;2023-02-13T14:54:24;-13437.44;;;-142.83;47.53
9129;BME280;4599;50.906;6.786;2023-02-13T14:58:28;-13437.44;;;-142.83;47.34
9129;BME280;4599;50.906;6.786;2023-02-13T15:02:34;-13437.44;;;-142.83;47.54
9129;BME280;4599;50.906;6.786;2023-02-13T15:06:38;-13437.44;;;-142.83;47.28
9129;BME280;4599;50.906;6.786;2023-02-13T15:10:43;-13437.44;;;-142.83;47.07
9129;BME280;4599;50.906;6.786;2023-02-13T15:14:45;-13437.44;;;-142.83;47.14
9129;BME280;4599;50.906;6.786;2023-02-13T15:18:48;-13437.44;;;-142.83;47.52
9129;BME280;4599;50.906;6.786;2023-02-13T15:22:51;-13437.44;;;-142.83;48.03
9129;BME280;4599;50.906;6.786;2023-02-13T15:26:59;-13437.44;;;-142.83;47.91
9129;BME280;4599;50.906;6.786;2023-02-13T15:31:03;-13437.44;;;-142.83;47.47
9129;BME280;4599;50.906;6.786;2023-02-13T15:35:21;-13437.44;;;-142.83;48.26
9129;BME280;4599;50.906;6.786;2023-02-13T15:39:25;-13437.44;;;-142.83;48.09
9129;BME280;4599;50.906;6.786;2023-02-13T15:43:33;-13437.44;;;-142.83;47.84
9129;BME280;4599;50.906;6.786;2023-02-13T15:47:35;-13437.44;;;-142.83;48.29
9129;BME280;4599;50.906;6.786;2023-02-13T15:51:37;-13437.44;;;-142.83;47.84
9129;BME280;4599;50.906;6.786;2023-02-13T15:55:38;-13437.44;;;-142.83;49.36
9129;BME280;4599;50.906;6.786;2023-02-13T15:59:42;-13437.44;;;-142.83;48.38
9129;BME280;4599;50.906;6.786;2023-02-13T16:03:46;-13437.44;;;-142.83;49.06
9129;BME280;4599;50.906;6.786;2023-02-13T16:07:49;-13437.44;;;-142.83;49.13
9129;BME280;4599;50.906;6.786;2023-02-13T16:12:03;-13437.44;;;-142.83;49.52
9129;BME280;4599;50.906;6.786;2023-02-13T16:16:14;-13437.44;;;-142.83;49.83
9129;BME280;4599;50.906;6.786;2023-02-13T16:20:18;-13437.44;;;-142.83;49.54
9129;BME280;4599;50.906;6.786;2023-02-13T16:24:21;-13437.44;;;-142.83;50.65
9129;BME280;4599;50.906;6.786;2023-02-13T16:28:24;-13437.44;;;-142.83;50.78
9129;BME280;4599;50.906;6.786;2023-02-13T16:32:30;-13437.44;;;-142.83;51.20
9129;BME280;4599;50.906;6.786;2023-02-13T16:36:33;-13437.44;;;-142.83;51.33
9129;BME280;4599;50.906;6.786;2023-02-13T16:40:37;-13437.44;;;-142.83;51.59
9129;BME280;4599;50.906;6.786;2023-02-13T16:44:38;-13437.44;;;-142.83;52.06
9129;BME280;4599;50.906;6.786;2023-02-13T16:48:42;-13437.44;;;-142.83;52.77
9129;BME280;4599;50.906;6.786;2023-02-13T16:52:44;-13437.44;;;-142.83;53.51
9129;BME280;4599;50.906;6.786;2023-02-13T16:56:48;-13437.44;;;-142.83;53.68
9129;BME280;4599;50.906;6.786;2023-02-13T17:00:50;-13437.44;;;-142.83;53.97
9129;BME280;4599;50.906;6.786;2023-02-13T17:04:55;-13437.44;;;-142.83;54.21
9129;BME280;4599;50.906;6.786;2023-02-13T17:08:56;-13437.44;;;-142.83;55.11
9129;BME280;4599;50.906;6.786;2023-02-13T17:12:59;-13437.44;;;-142.83;55.32
9129;BME280;4599;50.906;6.786;2023-02-13T17:17:01;-13437.44;;;-142.83;55.60
9129;BME280;4599;50.906;6.786;2023-02-13T17:21:04;-13437.44;;;-142.83;56.04
9129;BME280;4599;50.906;6.786;2023-02-13T17:25:08;-13437.44;;;-142.83;56.65
9129;BME280;4599;50.906;6.786;2023-02-13T17:29:09;-13437.44;;;-142.83;56.58
9129;BME280;4599;50.906;6.786;2023-02-13T17:33:13;-13437.44;;;-142.83;56.98
9129;BME280;4599;50.906;6.786;2023-02-13T17:37:21;-13437.44;;;-142.83;56.98
9129;BME280;4599;50.906;6.786;2023-02-13T17:41:23;-13437.44;;;-142.83;57.44
9129;BME280;4599;50.906;6.786;2023-02-13T17:45:26;-13437.44;;;-142.83;57.73
9129;BME280;4599;50.906;6.786;2023-02-13T17:49:28;-13437.44;;;-142.83;58.07
9129;BME280;4599;50.906;6.786;2023-02-13T17:53:31;-13437.44;;;-142.83;57.90
9129;BME280;4599;50.906;6.786;2023-02-13T17:57:32;-13437.44;;;-142.83;58.47
9129;BME280;4599;50.906;6.786;2023-02-13T18:01:34;-13437.44;;;-142.83;58.90
9129;BME280;4599;50.906;6.786;2023-02-13T18:05:35;-13437.44;;;-142.83;58.91
9129;BME280;4599;50.906;6.786;2023-02-13T18:09:38;-13437.44;;;-142.83;59.11
9129;BME280;4599;50.906;6.786;2023-02-13T18:13:39;-13437.44;;;-142.83;59.05
9129;BME280;4599;50.906;6.786;2023-02-13T18:17:41;-13437.44;;;-142.83;59.10
9129;BME280;4599;50.906;6.786;2023-02-13T18:21:43;-13437.44;;;-142.83;59.00
9129;BME280;4599;50.906;6.786;2023-02-13T18:25:46;-13437.44;;;-142.83;58.81
9129;BME280;4599;50.906;6.786;2023-02-13T18:29:47;-13437.44;;;-142.83;58.09
9129;BME280;4599;50.906;6.786;2023-02-13T18:33:49;-13437.44;;;-142.83;57.44
9129;BME280;4599;50.906;6.786;2023-02-13T18:37:50;-13437.44;;;-142.83;57.42
9129;BME280;4599;50.906;6.786;2023-02-13T18:41:53;-13437.44;;;-142.83;57.23
9129;BME280;4599;50.906;6.786;2023-02-13T18:45:54;-13437.44;;;-142.83;56.80
9129;BME280;4599;50.906;6.786;2023-02-13T18:49:56;-13437.44;;;-142.83;56.75
9129;BME280;4599;50.906;6.786;2023-02-13T18:53:57;-13437.44;;;-142.83;56.76
9129;BME280;4599;50.906;6.786;2023-02-13T18:58:00;-13437.44;;;-142.83;56.20
9129;BME280;4599;50.906;6.786;2023-02-13T19:02:02;-13437.44;;;-142.83;56.52
9129;BME280;4599;50.906;6.786;2023-02-13T19:06:06;-13437.44;;;-142.83;56.87
9129;BME280;4599;50.906;6.786;2023-02-13T19:10:09;-13437.44;;;-142.83;56.67
9129;BME280;4599;50.906;6.786;2023-02-13T19:14:12;-13437.44;;;-142.83;56.74
9129;BME280;4599;50.906;6.786;2023-02-13T19:18:14;-13437.44;;;-142.83;57.42
9129;BME280;4599;50.906;6.786;2023-02-13T19:22:15;-13437.44;;;-142.83;57.64
9129;BME280;4599;50.906;6.786;2023-02-13T19:26:18;-13437.44;;;-142.83;57.66
9129;BME280;4599;50.906;6.786;2023-02-13T19:30:21;-13437.44;;;-142.83;58.08
9129;BME280;4599;50.906;6.786;2023-02-13T19:34:23;-13437.44;;;-142.83;57.95
9129;BME280;4599;50.906;6.786;2023-02-13T19:38:25;-13437.44;;;-142.83;58.26
9129;BME280;4599;50.906;6.786;2023-02-13T19:42:27;-13437.44;;;-142.83;58.17
9129;BME280;4599;50.906;6.786;2023-02-13T19:46:30;-13437.44;;;-142.83;58.67
9129;BME280;4599;50.906;6.786;2023-02-13T19:50:32;-13437.44;;;-142.83;58.79
9129;BME280;4599;50.906;6.786;2023-02-13T19:54:33;-13437.44;;;-142.83;59.00
9129;BME280;4599;50.906;6.786;2023-02-13T19:58:36;-13437.44;;;-142.83;59.23
9129;BME280;4599;50.906;6.786;2023-02-13T20:02:39;-13437.44;;;-142.83;59.40
9129;BME280;4599;50.906;6.786;2023-02-13T20:06:40;-13437.44;;;-142.83;59.91
9129;BME280;4599;50.906;6.786;2023-02-13T20:10:43;-13437.44;;;-142.83;59.85
9129;BME280;4599;50.906;6.786;2023-02-13T20:14:44;-13437.44;;;-142.83;60.23
9129;BME280;4599;50.906;6.786;2023-02-13T20:18:47;-13437.44;;;-142.83;60.70
9129;BME280;4599;50.906;6.786;2023-02-13T20:22:49;-13437.44;;;-142.83;61.14
9129;BME280;4599;50.906;6.786;2023-02-13T20:26:50;-13437.44;;;-142.83;61.27
9129;BME280;4599;50.906;6.786;2023-02-13T20:30:51;-13437.44;;;-142.83;62.32
9129;BME280;4599;50.906;6.786;2023-02-13T20:34:54;-13437.44;;;-142.83;63.58
9129;BME280;4599;50.906;6.786;2023-02-13T20:39:02;-13437.44;;;-142.83;64.32
9129;BME280;4599;50.906;6.786;2023-02-13T20:43:04;-13437.44;;;-142.83;65.06
9129;BME280;4599;50.906;6.786;2023-02-13T20:47:05;-13437.44;;;-142.83;65.65
9129;BME280;4599;50.906;6.786;2023-02-13T20:51:10;-13437.44;;;-142.83;64.64
9129;BME280;4599;50.906;6.786;2023-02-13T20:55:12;-13437.44;;;-142.83;63.90
9129;BME280;4599;50.906;6.786;2023-02-13T20:59:13;-13437.44;;;-142.83;63.90
9129;BME280;4599;50.906;6.786;2023-02-13T21:03:15;-13437.44;;;-142.83;63.50
9129;BME280;4599;50.906;6.786;2023-02-13T21:07:18;-13437.44;;;-142.83;64.11
9129;BME280;4599;50.906;6.786;2023-02-13T21:11:20;-13437.44;;;-142.83;65.11
9129;BME280;4599;50.906;6.786;2023-02-13T21:15:21;-13437.44;;;-142.83;65.87
9129;BME280;4599;50.906;6.786;2023-02-13T21:19:23;-13437.44;;;-142.83;65.85
9129;BME280;4599;50.906;6.786;2023-02-13T21:23:25;-13437.44;;;-142.83;66.15
9129;BME280;4599;50.906;6.786;2023-02-13T21:27:27;-13437.44;;;-142.83;66.88
9129;BME280;4599;50.906;6.786;2023-02-13T21:31:30;-13437.44;;;-142.83;66.92
9129;BME280;4599;50.906;6.786;2023-02-13T21:35:32;-13437.44;;;-142.83;67.67
9129;BME280;4599;50.906;6.786;2023-02-13T21:39:35;-13437.44;;;-142.83;67.81
9129;BME280;4599;50.906;6.786;2023-02-13T21:43:37;-13437.44;;;-142.83;68.11